BAW9173 EGKK-EGLL
Flight info
| Callsign | BAW9173 |
|---|---|
| Flight time | 0h 15m |
| Altitude | 9000 |
| Route | ACORN/N0276F080 DCT BIG |
| Aircraft | B772/H-SDE2E3FGHIJ5LORVWXY/LB1D1 |
Departure
| Time | 2026-05-06 12:56 |
|---|---|
| Airport | London Gatwick Airport (EGKK) |
Arrival
| Time | 2026-05-06 13:12 |
|---|---|
| Airport | London Heathrow Airport (EGLL) |
| Time | Latitude | Longitude | Altitude | Speed | Heading |
|---|---|---|---|---|---|
| 2026-05-06 12:22 | 51.15400 | -0.18924 | 214 ft | 0 kts | 257° |
| 2026-05-06 12:45 | 51.15408 | -0.18872 | 214 ft | 4 kts | 256° |
| 2026-05-06 12:46 | 51.15415 | -0.18831 | 216 ft | 4 kts | 250° |
| 2026-05-06 12:46 | 51.15424 | -0.18800 | 220 ft | 2 kts | 219° |
| 2026-05-06 12:46 | 51.15439 | -0.18790 | 218 ft | 2 kts | 173° |
| 2026-05-06 12:46 | 51.15451 | -0.18793 | 214 ft | 2 kts | 168° |
| 2026-05-06 12:47 | 51.15460 | -0.18796 | 211 ft | 0 kts | 166° |
| 2026-05-06 12:48 | 51.15448 | -0.18791 | 216 ft | 7 kts | 166° |
| 2026-05-06 12:49 | 51.15395 | -0.18771 | 214 ft | 8 kts | 166° |
| 2026-05-06 12:49 | 51.15342 | -0.18751 | 214 ft | 8 kts | 168° |
| 2026-05-06 12:49 | 51.15289 | -0.18733 | 214 ft | 8 kts | 168° |
| 2026-05-06 12:49 | 51.15236 | -0.18715 | 213 ft | 8 kts | 168° |
| 2026-05-06 12:50 | 51.15180 | -0.18696 | 213 ft | 8 kts | 172° |
| 2026-05-06 12:50 | 51.15129 | -0.18761 | 218 ft | 11 kts | 247° |
| 2026-05-06 12:50 | 51.15107 | -0.18888 | 213 ft | 13 kts | 256° |
| 2026-05-06 12:50 | 51.15084 | -0.19043 | 217 ft | 15 kts | 259° |
| 2026-05-06 12:51 | 51.15064 | -0.19203 | 208 ft | 15 kts | 257° |
| 2026-05-06 12:51 | 51.15039 | -0.19381 | 218 ft | 17 kts | 257° |
| 2026-05-06 12:51 | 51.15013 | -0.19567 | 217 ft | 17 kts | 258° |
| 2026-05-06 12:51 | 51.14985 | -0.19775 | 217 ft | 21 kts | 258° |
| 2026-05-06 12:52 | 51.14953 | -0.20009 | 215 ft | 22 kts | 257° |
| 2026-05-06 12:52 | 51.14920 | -0.20244 | 215 ft | 22 kts | 258° |
| 2026-05-06 12:52 | 51.14889 | -0.20478 | 209 ft | 22 kts | 258° |
| 2026-05-06 12:52 | 51.14857 | -0.20713 | 210 ft | 22 kts | 258° |
| 2026-05-06 12:53 | 51.14824 | -0.20947 | 216 ft | 22 kts | 257° |
| 2026-05-06 12:53 | 51.14792 | -0.21144 | 218 ft | 16 kts | 250° |
| 2026-05-06 12:53 | 51.14764 | -0.21315 | 212 ft | 16 kts | 257° |
| 2026-05-06 12:53 | 51.14708 | -0.21394 | 214 ft | 12 kts | 179° |
| 2026-05-06 12:54 | 51.14645 | -0.21340 | 219 ft | 9 kts | 158° |
| 2026-05-06 12:54 | 51.14622 | -0.21330 | 217 ft | 0 kts | 165° |
| 2026-05-06 12:55 | 51.14588 | -0.21314 | 216 ft | 12 kts | 160° |
| 2026-05-06 12:55 | 51.14525 | -0.21209 | 217 ft | 14 kts | 105° |
| 2026-05-06 12:55 | 51.14537 | -0.21058 | 214 ft | 14 kts | 77° |
| 2026-05-06 12:55 | 51.14575 | -0.20783 | 207 ft | 51 kts | 77° |
| 2026-05-06 12:56 | 51.14711 | -0.19794 | 209 ft | 132 kts | 76° |
| 2026-05-06 12:56 | 51.14940 | -0.18195 | 749 ft | 153 kts | 75° |
| 2026-05-06 12:56 | 51.15167 | -0.16519 | 1760 ft | 163 kts | 73° |
| 2026-05-06 12:56 | 51.15425 | -0.14599 | 2108 ft | 194 kts | 73° |
| 2026-05-06 12:57 | 51.15723 | -0.12333 | 2392 ft | 226 kts | 75° |
| 2026-05-06 12:57 | 51.16060 | -0.09728 | 2847 ft | 248 kts | 75° |
| 2026-05-06 12:57 | 51.16406 | -0.06995 | 3752 ft | 254 kts | 76° |
| 2026-05-06 12:57 | 51.16804 | -0.04245 | 4551 ft | 256 kts | 66° |
| 2026-05-06 12:58 | 51.17826 | -0.01965 | 5394 ft | 254 kts | 36° |
| 2026-05-06 12:58 | 51.19411 | -0.00765 | 6263 ft | 254 kts | 10° |
| 2026-05-06 12:58 | 51.21191 | -0.00453 | 7012 ft | 261 kts | 2° |
| 2026-05-06 12:58 | 51.22990 | -0.00426 | 7711 ft | 258 kts | 352° |
| 2026-05-06 12:59 | 51.24651 | -0.01431 | 7997 ft | 264 kts | 326° |
| 2026-05-06 12:59 | 51.25944 | -0.03621 | 7994 ft | 279 kts | 306° |
| 2026-05-06 12:59 | 51.26956 | -0.06228 | 7999 ft | 276 kts | 302° |
| 2026-05-06 12:59 | 51.27906 | -0.08895 | 7990 ft | 270 kts | 301° |
| 2026-05-06 13:00 | 51.28805 | -0.11455 | 7996 ft | 266 kts | 301° |
| 2026-05-06 13:00 | 51.29700 | -0.14025 | 7987 ft | 263 kts | 300° |
| 2026-05-06 13:00 | 51.30445 | -0.16707 | 7978 ft | 266 kts | 293° |
| 2026-05-06 13:00 | 51.31064 | -0.19488 | 7978 ft | 264 kts | 291° |
| 2026-05-06 13:01 | 51.31667 | -0.22286 | 7993 ft | 267 kts | 291° |
| 2026-05-06 13:01 | 51.32266 | -0.25089 | 7982 ft | 266 kts | 291° |
| 2026-05-06 13:01 | 51.32858 | -0.27877 | 7880 ft | 265 kts | 291° |
| 2026-05-06 13:01 | 51.33453 | -0.30684 | 7699 ft | 266 kts | 291° |
| 2026-05-06 13:02 | 51.34048 | -0.33506 | 7507 ft | 268 kts | 291° |
| 2026-05-06 13:02 | 51.34640 | -0.36326 | 7423 ft | 266 kts | 291° |
| 2026-05-06 13:02 | 51.35225 | -0.39134 | 7332 ft | 265 kts | 291° |
| 2026-05-06 13:02 | 51.35807 | -0.41943 | 7195 ft | 266 kts | 291° |
| 2026-05-06 13:03 | 51.36380 | -0.44719 | 7089 ft | 264 kts | 291° |
| 2026-05-06 13:03 | 51.36953 | -0.47497 | 7031 ft | 262 kts | 290° |
| 2026-05-06 13:03 | 51.37256 | -0.50375 | 7000 ft | 267 kts | 273° |
| 2026-05-06 13:03 | 51.37201 | -0.53355 | 6913 ft | 268 kts | 271° |
| 2026-05-06 13:04 | 51.37128 | -0.56327 | 6580 ft | 267 kts | 271° |
| 2026-05-06 13:04 | 51.37050 | -0.59298 | 6278 ft | 266 kts | 271° |
| 2026-05-06 13:04 | 51.36966 | -0.62258 | 5945 ft | 266 kts | 271° |
| 2026-05-06 13:04 | 51.36880 | -0.65205 | 5680 ft | 265 kts | 271° |
| 2026-05-06 13:05 | 51.36796 | -0.68151 | 5357 ft | 265 kts | 271° |
| 2026-05-06 13:05 | 51.36713 | -0.71093 | 5048 ft | 265 kts | 271° |
| 2026-05-06 13:05 | 51.36631 | -0.74024 | 4818 ft | 259 kts | 271° |
| 2026-05-06 13:05 | 51.36852 | -0.76741 | 4617 ft | 236 kts | 296° |
| 2026-05-06 13:06 | 51.37802 | -0.78713 | 4256 ft | 219 kts | 328° |
| 2026-05-06 13:06 | 51.39198 | -0.79514 | 3743 ft | 216 kts | 354° |
| 2026-05-06 13:06 | 51.40717 | -0.79616 | 3473 ft | 217 kts | 360° |
| 2026-05-06 13:06 | 51.42200 | -0.79614 | 3362 ft | 209 kts | 0° |
| 2026-05-06 13:07 | 51.43615 | -0.79550 | 3287 ft | 194 kts | 8° |
| 2026-05-06 13:07 | 51.44739 | -0.78662 | 3308 ft | 181 kts | 44° |
| 2026-05-06 13:07 | 51.45388 | -0.76887 | 3327 ft | 187 kts | 60° |
| 2026-05-06 13:07 | 51.45957 | -0.75001 | 3221 ft | 188 kts | 60° |
| 2026-05-06 13:08 | 51.46516 | -0.73129 | 3138 ft | 184 kts | 61° |
| 2026-05-06 13:08 | 51.47076 | -0.71250 | 3006 ft | 188 kts | 60° |
| 2026-05-06 13:08 | 51.47495 | -0.69261 | 2733 ft | 191 kts | 78° |
| 2026-05-06 13:08 | 51.47636 | -0.67131 | 2449 ft | 193 kts | 82° |
| 2026-05-06 13:09 | 51.47690 | -0.64968 | 2193 ft | 194 kts | 85° |
| 2026-05-06 13:09 | 51.47698 | -0.62843 | 1912 ft | 185 kts | 86° |
| 2026-05-06 13:09 | 51.47702 | -0.60854 | 1659 ft | 171 kts | 85° |
| 2026-05-06 13:09 | 51.47710 | -0.59015 | 1437 ft | 163 kts | 85° |
| 2026-05-06 13:10 | 51.47718 | -0.57214 | 1206 ft | 156 kts | 85° |
| 2026-05-06 13:10 | 51.47722 | -0.55578 | 1013 ft | 143 kts | 84° |
| 2026-05-06 13:10 | 51.47727 | -0.54043 | 828 ft | 133 kts | 83° |
| 2026-05-06 13:10 | 51.47734 | -0.52544 | 611 ft | 133 kts | 84° |
| 2026-05-06 13:11 | 51.47733 | -0.51053 | 418 ft | 135 kts | 84° |
| 2026-05-06 13:11 | 51.47741 | -0.49542 | 291 ft | 134 kts | 85° |
| 2026-05-06 13:11 | 51.47750 | -0.48072 | 117 ft | 131 kts | 85° |
| 2026-05-06 13:11 | 51.47758 | -0.46729 | 97 ft | 101 kts | 89° |
| 2026-05-06 13:12 | 51.47758 | -0.45841 | 92 ft | 49 kts | 89° |
| 2026-05-06 13:12 | 51.47753 | -0.45553 | 93 ft | 17 kts | 108° |
| 2026-05-06 13:12 | 51.47663 | -0.45470 | 91 ft | 4 kts | 178° |
| 2026-05-06 13:13 | 51.47637 | -0.45468 | 91 ft | 6 kts | 178° |
| 2026-05-06 13:13 | 51.47600 | -0.45512 | 94 ft | 11 kts | 254° |
| 2026-05-06 13:14 | 51.47594 | -0.45644 | 94 ft | 12 kts | 268° |
| 2026-05-06 13:14 | 51.47591 | -0.45779 | 91 ft | 12 kts | 268° |
| 2026-05-06 13:14 | 51.47593 | -0.45914 | 92 ft | 12 kts | 271° |
| 2026-05-06 13:14 | 51.47594 | -0.46049 | 94 ft | 12 kts | 271° |
| 2026-05-06 13:15 | 51.47593 | -0.46250 | 92 ft | 25 kts | 269° |
| 2026-05-06 13:15 | 51.47591 | -0.46530 | 91 ft | 25 kts | 270° |
| 2026-05-06 13:15 | 51.47588 | -0.46800 | 93 ft | 21 kts | 265° |
| 2026-05-06 13:15 | 51.47583 | -0.47034 | 95 ft | 21 kts | 270° |
| 2026-05-06 13:16 | 51.47581 | -0.47261 | 95 ft | 17 kts | 269° |
| 2026-05-06 13:16 | 51.47547 | -0.47354 | 94 ft | 5 kts | 192° |
| 2026-05-06 13:16 | 51.47505 | -0.47358 | 92 ft | 6 kts | 180° |
| 2026-05-06 13:16 | 51.47462 | -0.47358 | 91 ft | 6 kts | 180° |
| 2026-05-06 13:17 | 51.47419 | -0.47358 | 91 ft | 7 kts | 180° |
| 2026-05-06 13:17 | 51.47360 | -0.47357 | 91 ft | 10 kts | 180° |
| 2026-05-06 13:17 | 51.47286 | -0.47357 | 91 ft | 11 kts | 180° |
| 2026-05-06 13:17 | 51.47228 | -0.47355 | 91 ft | 6 kts | 175° |
| 2026-05-06 13:18 | 51.47213 | -0.47324 | 95 ft | 3 kts | 108° |
| 2026-05-06 13:18 | 51.47210 | -0.47289 | 94 ft | 3 kts | 93° |
| 2026-05-06 13:18 | 51.47209 | -0.47252 | 95 ft | 3 kts | 94° |
| 2026-05-06 13:18 | 51.47208 | -0.47224 | 95 ft | 2 kts | 91° |
| 2026-05-06 13:19 | 51.47208 | -0.47218 | 95 ft | 0 kts | 91° |